Time;durP1;ratioP1;P1;durP2;ratioP2;P2;SDS_P1;SDS_P2;PMS_P1;PMS_P2;Temp;Humidity;BMP_temperature;BMP_pressure;BME280_temperature;BME280_humidity;BME280_pressure;Samples;Min_cycle;Max_cycle;Signal;HPM_P1;HPM_P2
2024/02/12 00:01:38;;;;;;;44.25;17.30;;;7.80;99.90;;;;;;4951151;29;20040;-92
2024/02/12 00:04:08;;;;;;;37.75;15.95;;;7.30;99.90;;;;;;4949578;29;20036;-91
2024/02/12 00:06:37;;;;;;;49.17;17.23;;;8.00;99.90;;;;;;4938290;29;20032;-92
2024/02/12 00:09:04;;;;;;;45.53;17.27;;;7.10;99.90;;;;;;4938153;29;20044;-91
2024/02/12 00:11:30;;;;;;;43.65;16.70;;;7.10;99.90;;;;;;4938101;29;20408;-91
2024/02/12 00:13:57;;;;;;;44.72;16.75;;;7.20;99.90;;;;;;4947649;29;20126;-91
2024/02/12 00:16:29;;;;;;;44.47;16.27;;;7.10;99.90;;;;;;4937963;29;20127;-92
2024/02/12 00:18:56;;;;;;;49.85;19.42;;;7.00;99.90;;;;;;4930089;29;20457;-92
2024/02/12 00:21:23;;;;;;;50.58;15.85;;;7.10;99.90;;;;;;4930284;29;20071;-91
2024/02/12 00:23:50;;;;;;;42.60;16.77;;;7.10;99.90;;;;;;4932801;29;20071;-92
2024/02/12 00:26:19;;;;;;;40.42;16.15;;;7.40;99.90;;;;;;4938099;29;20039;-92
2024/02/12 00:28:48;;;;;;;46.95;16.27;;;7.10;99.90;;;;;;4941036;29;20055;-92
2024/02/12 00:31:17;;;;;;;48.53;15.73;;;7.00;99.90;;;;;;4928590;29;20462;-92
2024/02/12 00:33:44;;;;;;;40.03;15.82;;;7.50;99.90;;;;;;4937194;29;20048;-92
2024/02/12 00:36:10;;;;;;;40.35;15.80;;;7.00;99.90;;;;;;4951121;29;20040;-92
2024/02/12 00:38:39;;;;;;;44.35;16.23;;;7.90;99.90;;;;;;4937596;29;20110;-92
2024/02/12 00:41:14;;;;;;;41.60;15.70;;;7.50;99.90;;;;;;4934664;29;20126;-92
2024/02/12 00:43:42;;;;;;;41.75;16.35;;;6.90;99.90;;;;;;4925686;29;20047;-91
2024/02/12 00:46:09;;;;;;;44.50;15.45;;;6.90;99.90;;;;;;4925186;29;20055;-92
2024/02/12 00:48:36;;;;;;;41.00;16.17;;;7.00;99.90;;;;;;4937155;29;20051;-92
2024/02/12 00:51:03;;;;;;;42.60;16.52;;;7.30;99.90;;;;;;4937497;29;20050;-91
2024/02/12 00:53:29;;;;;;;48.60;15.85;;;6.90;99.90;;;;;;4935998;29;20036;-93
2024/02/12 00:55:57;;;;;;;40.90;16.10;;;6.90;99.90;;;;;;4937638;29;20083;-92
2024/02/12 00:58:24;;;;;;;46.20;16.63;;;7.60;99.90;;;;;;4935148;29;20055;-91
2024/02/12 01:00:51;;;;;;;43.33;15.60;;;7.70;99.90;;;;;;4937395;29;20035;-92
2024/02/12 01:03:17;;;;;;;45.35;16.45;;;6.90;99.90;;;;;;4937200;29;20520;-91
2024/02/12 01:05:45;;;;;;;46.38;16.65;;;7.00;99.90;;;;;;4942328;29;20071;-90
2024/02/12 01:08:12;;;;;;;51.63;16.23;;;7.20;99.90;;;;;;4938404;29;20122;-91
2024/02/12 01:10:38;;;;;;;40.70;16.70;;;6.90;99.90;;;;;;4940929;29;20167;-92
2024/02/12 01:13:05;;;;;;;45.55;17.77;;;7.00;99.90;;;;;;4941003;29;20585;-91
2024/02/12 01:15:32;;;;;;;49.72;17.52;;;7.00;99.90;;;;;;4929048;29;20417;-92
2024/02/12 01:17:58;;;;;;;50.08;16.67;;;7.00;99.90;;;;;;4941083;29;20044;-91
2024/02/12 01:20:25;;;;;;;47.92;15.90;;;7.00;99.90;;;;;;4940986;29;20083;-92
2024/02/12 01:22:52;;;;;;;42.25;16.10;;;7.80;99.90;;;;;;4950080;29;20051;-92
2024/02/12 01:25:18;;;;;;;45.13;15.98;;;8.00;99.90;;;;;;4930491;29;20489;-92
2024/02/12 01:27:46;;;;;;;43.75;15.52;;;7.10;99.90;;;;;;4929804;29;20039;-92
2024/02/12 01:30:14;;;;;;;47.53;16.23;;;7.10;99.90;;;;;;4939684;29;20059;-92
2024/02/12 01:32:41;;;;;;;38.17;13.80;;;7.10;99.90;;;;;;4932417;29;20047;-93
2024/02/12 01:35:08;;;;;;;42.60;14.40;;;7.30;99.90;;;;;;4940469;29;20039;-91
2024/02/12 01:37:34;;;;;;;42.85;15.80;;;7.10;99.90;;;;;;4960904;29;20039;-92
2024/02/12 01:40:01;;;;;;;44.72;16.05;;;7.30;99.90;;;;;;4937766;29;20095;-92
2024/02/12 01:42:27;;;;;;;43.30;14.52;;;7.10;99.90;;;;;;4940294;29;20044;-90
2024/02/12 01:45:11;;;;;;;33.72;14.30;;;7.10;99.90;;;;;;4940942;29;20052;-92
2024/02/12 01:47:41;;;;;;;38.55;14.65;;;7.00;99.90;;;;;;4936873;29;20555;-91
2024/02/12 01:50:12;;;;;;;38.72;13.15;;;7.00;99.90;;;;;;4932409;29;20102;-92
2024/02/12 01:52:48;;;;;;;39.58;13.52;;;7.60;99.90;;;;;;4937240;29;20071;-91
2024/02/12 01:55:15;;;;;;;42.22;14.55;;;7.40;99.90;;;;;;4940336;29;20044;-92
2024/02/12 01:57:46;;;;;;;40.78;14.73;;;7.00;99.90;;;;;;4940648;29;20082;-92
2024/02/12 02:00:17;;;;;;;43.20;14.32;;;8.10;99.90;;;;;;4933166;29;20821;-92
2024/02/12 02:02:45;;;;;;;40.60;14.52;;;7.00;99.90;;;;;;4954599;29;20060;-91
2024/02/12 02:05:13;;;;;;;36.78;14.05;;;7.10;99.90;;;;;;4940696;29;20039;-91
2024/02/12 02:07:40;;;;;;;45.40;15.52;;;7.10;99.90;;;;;;4939788;29;20046;-92
2024/02/12 02:10:09;;;;;;;46.10;15.25;;;7.00;99.90;;;;;;4940345;29;20445;-92
2024/02/12 02:12:39;;;;;;;41.58;14.88;;;7.00;99.90;;;;;;4939653;29;20501;-92
2024/02/12 02:15:06;;;;;;;39.63;15.15;;;7.00;99.90;;;;;;4936396;29;20115;-92
2024/02/12 02:17:33;;;;;;;40.15;15.07;;;7.10;99.90;;;;;;4928754;29;20047;-92
2024/02/12 02:20:00;;;;;;;41.85;13.95;;;7.10;99.90;;;;;;4943105;29;20044;-92
2024/02/12 02:22:29;;;;;;;40.20;13.60;;;7.10;99.90;;;;;;4945194;29;20043;-92
2024/02/12 02:24:57;;;;;;;44.05;14.35;;;7.00;99.90;;;;;;4940240;29;20486;-91
2024/02/12 02:27:25;;;;;;;40.35;13.70;;;7.00;99.90;;;;;;4931233;29;20531;-91
2024/02/12 02:29:52;;;;;;;39.95;13.50;;;7.70;99.90;;;;;;4927958;29;20061;-93
2024/02/12 02:32:18;;;;;;;44.53;13.82;;;7.50;99.90;;;;;;4954253;29;20052;-93
2024/02/12 02:34:46;;;;;;;33.35;12.88;;;7.60;99.90;;;;;;4939231;29;20055;-91
2024/02/12 02:37:13;;;;;;;39.78;13.55;;;7.60;99.90;;;;;;4935327;29;21101;-92
2024/02/12 02:39:39;;;;;;;40.97;14.02;;;7.00;99.90;;;;;;4955527;29;20044;-92
2024/02/12 02:42:06;;;;;;;33.38;13.75;;;7.00;99.90;;;;;;4955507;29;20067;-92
2024/02/12 02:44:33;;;;;;;34.85;12.05;;;7.00;99.90;;;;;;4939765;29;20479;-92
2024/02/12 02:47:00;;;;;;;34.90;13.02;;;7.00;99.90;;;;;;4955162;29;20073;-92
2024/02/12 02:49:26;;;;;;;30.13;12.18;;;7.00;99.90;;;;;;4939473;29;20043;-92
2024/02/12 02:51:53;;;;;;;36.78;13.25;;;7.00;99.90;;;;;;4955520;29;20048;-92
2024/02/12 02:54:21;;;;;;;32.25;11.88;;;7.10;99.90;;;;;;4939073;29;20040;-92
2024/02/12 02:56:48;;;;;;;36.25;12.20;;;8.00;99.90;;;;;;4939306;29;20049;-90
2024/02/12 02:59:14;;;;;;;33.92;12.32;;;7.00;99.90;;;;;;4933829;29;20036;-92
2024/02/12 03:01:41;;;;;;;32.75;12.85;;;7.20;99.90;;;;;;4934958;29;20050;-92
2024/02/12 03:04:08;;;;;;;32.45;12.27;;;7.00;99.90;;;;;;4926984;29;20097;-92
2024/02/12 03:06:34;;;;;;;26.60;12.07;;;7.70;99.90;;;;;;4934053;29;20040;-92
2024/02/12 03:09:02;;;;;;;38.83;13.18;;;7.20;99.90;;;;;;4931839;29;20490;-92
2024/02/12 03:11:29;;;;;;;31.33;11.90;;;7.20;99.90;;;;;;4924973;29;20119;-92
2024/02/12 03:13:56;;;;;;;35.63;12.13;;;7.00;99.90;;;;;;4939061;29;20039;-91
2024/02/12 03:16:22;;;;;;;30.02;11.73;;;6.90;99.90;;;;;;4939060;29;20050;-92
2024/02/12 03:18:49;;;;;;;31.63;12.30;;;7.00;99.90;;;;;;4939024;29;20043;-92
2024/02/12 03:21:23;;;;;;;31.90;12.48;;;7.30;99.90;;;;;;4938894;29;20123;-90
2024/02/12 03:23:50;;;;;;;33.05;12.02;;;7.10;99.90;;;;;;4954932;29;20044;-92
2024/02/12 03:26:17;;;;;;;29.27;12.45;;;7.00;99.90;;;;;;4939169;29;20040;-91
2024/02/12 03:28:44;;;;;;;32.00;12.75;;;7.00;99.90;;;;;;4938296;29;20121;-91
2024/02/12 03:31:11;;;;;;;33.13;12.95;;;6.90;99.90;;;;;;4927335;29;20047;-92
2024/02/12 03:33:42;;;;;;;29.35;12.57;;;6.90;99.90;;;;;;4938837;29;20056;-92
2024/02/12 03:36:09;;;;;;;36.53;13.50;;;7.70;99.90;;;;;;4938332;29;20493;-92
2024/02/12 03:38:37;;;;;;;32.15;12.57;;;7.50;99.90;;;;;;4937585;29;20095;-92
2024/02/12 03:41:05;;;;;;;38.53;13.20;;;7.30;99.90;;;;;;4942865;29;20051;-92
2024/02/12 03:43:32;;;;;;;30.15;13.23;;;6.90;99.90;;;;;;4938735;29;20054;-92
2024/02/12 03:45:59;;;;;;;32.58;13.07;;;7.00;99.90;;;;;;4927572;29;20553;-92
2024/02/12 03:59:53;;;;;;;32.63;12.98;;;6.90;99.90;;;;;;4954128;29;20130;-93
2024/02/12 04:02:21;;;;;;;32.00;13.57;;;7.00;99.90;;;;;;4938524;29;20586;-91
2024/02/12 04:04:49;;;;;;;37.13;14.23;;;6.90;99.90;;;;;;4925819;29;20044;-93
2024/02/12 04:07:17;;;;;;;38.38;13.95;;;7.00;99.90;;;;;;4926073;29;20191;-92
2024/02/12 04:09:43;;;;;;;38.13;13.90;;;7.00;99.90;;;;;;4946659;29;20175;-90
2024/02/12 04:12:11;;;;;;;39.25;15.23;;;6.90;99.90;;;;;;4938068;29;20122;-92
2024/02/12 04:14:42;;;;;;;34.22;13.55;;;6.90;99.90;;;;;;4936977;29;20047;-92
2024/02/12 04:17:10;;;;;;;39.25;13.75;;;6.90;99.90;;;;;;4933850;29;20047;-91
2024/02/12 04:19:37;;;;;;;38.90;13.52;;;6.90;99.90;;;;;;4938080;29;20043;-91
2024/02/12 04:22:10;;;;;;;37.05;14.10;;;7.00;99.90;;;;;;4937750;29;20126;-91
2024/02/12 04:24:41;;;;;;;37.17;14.77;;;6.90;99.90;;;;;;4949096;29;20122;-92
2024/02/12 04:27:08;;;;;;;32.83;14.32;;;7.00;99.90;;;;;;4929312;29;20111;-91
2024/02/12 04:29:37;;;;;;;34.33;13.95;;;6.90;99.90;;;;;;4937588;29;20060;-92
2024/02/12 04:32:14;;;;;;;38.42;14.77;;;7.50;99.90;;;;;;4937728;29;20043;-93
2024/02/12 04:34:41;;;;;;;35.67;13.85;;;6.80;99.90;;;;;;4938106;29;20036;-92
2024/02/12 04:37:10;;;;;;;34.85;14.02;;;6.90;99.90;;;;;;4955814;29;20043;-92
2024/02/12 04:39:37;;;;;;;29.63;13.27;;;7.30;99.90;;;;;;4937439;29;20040;-93
2024/02/12 04:42:04;;;;;;;34.92;14.00;;;6.90;99.90;;;;;;4936766;29;20041;-93
2024/02/12 04:44:31;;;;;;;37.13;13.65;;;6.80;99.90;;;;;;4937171;29;20067;-92
2024/02/12 04:46:58;;;;;;;33.78;13.75;;;7.60;99.90;;;;;;4937535;29;20086;-92
2024/02/12 04:49:25;;;;;;;31.15;13.43;;;6.80;99.90;;;;;;4937265;29;20074;-92
2024/02/12 04:51:53;;;;;;;34.65;13.93;;;6.80;99.90;;;;;;4924839;29;20040;-92
2024/02/12 04:54:23;;;;;;;36.10;13.75;;;6.80;99.90;;;;;;4936948;29;20036;-92
2024/02/12 04:56:50;;;;;;;26.45;12.25;;;7.60;99.90;;;;;;4937781;29;20043;-92
2024/02/12 04:59:20;;;;;;;31.95;13.00;;;7.50;99.90;;;;;;4932095;29;20052;-92
2024/02/12 05:01:47;;;;;;;32.40;13.45;;;7.50;99.90;;;;;;4931502;29;20047;-93
2024/02/12 05:04:17;;;;;;;35.88;13.55;;;6.80;99.90;;;;;;4936928;29;20043;-92
2024/02/12 05:06:45;;;;;;;33.88;12.45;;;6.80;99.90;;;;;;4936938;29;20122;-91
2024/02/12 05:09:12;;;;;;;32.33;13.15;;;7.60;99.90;;;;;;4942676;29;20044;-92
2024/02/12 05:11:39;;;;;;;33.03;13.40;;;7.20;99.90;;;;;;4936809;29;20135;-92
2024/02/12 05:14:06;;;;;;;41.53;14.52;;;6.80;99.90;;;;;;4952443;29;20257;-92
2024/02/12 05:16:34;;;;;;;37.92;14.60;;;6.90;99.90;;;;;;4934244;29;20520;-92
2024/02/12 05:24:35;;;;;;;33.70;14.38;;;6.90;99.90;;;;;;4950460;29;20058;-91
2024/02/12 05:27:02;;;;;;;31.15;14.35;;;6.90;99.90;;;;;;4930217;29;20040;-91
2024/02/12 05:29:29;;;;;;;36.60;14.70;;;6.90;99.90;;;;;;4933749;29;20776;-93
2024/02/12 05:31:56;;;;;;;38.63;14.10;;;7.20;99.90;;;;;;4936978;29;20043;-93
2024/02/12 05:34:23;;;;;;;33.47;15.60;;;7.10;99.90;;;;;;4940975;29;20051;-92
2024/02/12 05:36:53;;;;;;;43.35;15.23;;;6.90;99.90;;;;;;4953205;29;20044;-91
2024/02/12 05:39:21;;;;;;;47.08;17.25;;;7.10;99.90;;;;;;4956151;29;20516;-91
2024/02/12 05:41:48;;;;;;;47.53;17.92;;;6.90;99.90;;;;;;4949799;29;20405;-93
2024/02/12 05:44:16;;;;;;;50.88;19.48;;;6.90;99.90;;;;;;4935238;29;20489;-92
2024/02/12 05:46:43;;;;;;;46.33;19.00;;;6.90;99.90;;;;;;4931348;29;20131;-92
2024/02/12 05:49:13;;;;;;;41.72;18.83;;;6.90;99.90;;;;;;4936849;29;20073;-92
2024/02/12 05:51:43;;;;;;;44.70;18.05;;;6.90;99.90;;;;;;4937001;29;20050;-92
2024/02/12 05:54:09;;;;;;;43.58;17.90;;;6.90;99.90;;;;;;4927079;29;20572;-92
2024/02/12 05:56:39;;;;;;;45.30;16.25;;;6.90;99.90;;;;;;4937846;29;20039;-91
2024/02/12 05:59:06;;;;;;;38.92;16.65;;;6.90;99.90;;;;;;4940828;29;20035;-91
2024/02/12 06:01:33;;;;;;;39.70;15.98;;;7.00;99.90;;;;;;4940308;29;20035;-92
2024/02/12 06:04:00;;;;;;;40.33;15.43;;;6.90;99.90;;;;;;4945746;29;20054;-92
2024/02/12 06:06:26;;;;;;;34.58;14.02;;;6.90;99.90;;;;;;4941025;29;20106;-91
2024/02/12 06:08:53;;;;;;;39.88;14.88;;;7.10;99.90;;;;;;4940305;29;20047;-92
2024/02/12 06:11:20;;;;;;;36.78;14.38;;;7.70;99.90;;;;;;4962655;29;20039;-93
2024/02/12 06:13:47;;;;;;;33.03;14.88;;;7.00;99.90;;;;;;4933057;29;20048;-91
2024/02/12 06:16:14;;;;;;;35.55;14.60;;;6.80;99.90;;;;;;4940128;29;20171;-92
2024/02/12 06:18:40;;;;;;;36.72;14.35;;;6.80;99.90;;;;;;4928820;29;20061;-92
2024/02/12 06:21:07;;;;;;;31.92;14.45;;;6.70;99.90;;;;;;4938973;29;20131;-92
2024/02/12 06:23:34;;;;;;;42.60;16.50;;;6.60;99.90;;;;;;4932054;29;20040;-93
2024/02/12 06:26:00;;;;;;;42.45;17.30;;;7.00;99.90;;;;;;4933815;29;20035;-93
2024/02/12 06:28:27;;;;;;;50.03;18.88;;;6.50;99.90;;;;;;4945261;29;20079;-92
2024/02/12 06:30:53;;;;;;;44.55;16.85;;;6.50;99.90;;;;;;4940178;29;20596;-91
2024/02/12 06:33:20;;;;;;;53.58;19.63;;;6.50;99.90;;;;;;4929563;29;20040;-92
2024/02/12 06:35:47;;;;;;;42.70;16.95;;;6.50;99.90;;;;;;4936249;29;20032;-93
2024/02/12 06:38:14;;;;;;;39.25;17.35;;;6.80;99.90;;;;;;4946976;29;20050;-92
2024/02/12 06:40:41;;;;;;;47.95;18.20;;;7.50;99.90;;;;;;4939437;29;20046;-92
2024/02/12 06:43:07;;;;;;;46.72;18.73;;;6.60;99.90;;;;;;4955470;29;20051;-91
2024/02/12 06:45:34;;;;;;;42.70;17.77;;;6.60;99.90;;;;;;4940022;29;20747;-92
2024/02/12 06:48:01;;;;;;;49.50;18.92;;;6.60;99.90;;;;;;4939432;29;20063;-92
2024/02/12 06:50:27;;;;;;;47.00;17.73;;;7.00;99.90;;;;;;4944632;29;20049;-92
2024/02/12 06:52:54;;;;;;;40.55;17.88;;;6.80;99.90;;;;;;4931686;29;20047;-92
2024/02/12 06:55:21;;;;;;;50.20;17.55;;;6.60;99.90;;;;;;4934058;29;20031;-93
2024/02/12 06:57:48;;;;;;;43.55;16.67;;;6.90;99.90;;;;;;4938912;29;20050;-93
2024/02/12 07:00:19;;;;;;;43.28;16.83;;;7.60;99.90;;;;;;4938983;29;20044;-92
2024/02/12 07:02:47;;;;;;;42.03;17.38;;;6.60;99.90;;;;;;4954811;29;20046;-93
2024/02/12 07:05:16;;;;;;;39.55;15.85;;;6.90;99.90;;;;;;4937925;29;20051;-91
2024/02/12 07:07:43;;;;;;;43.50;16.05;;;6.70;99.90;;;;;;4936176;29;20048;-89
2024/02/12 07:10:10;;;;;;;42.50;16.27;;;6.70;99.90;;;;;;4938788;29;20043;-92
2024/02/12 07:12:38;;;;;;;35.55;16.13;;;6.70;99.90;;;;;;4951003;29;20127;-92
2024/02/12 07:15:08;;;;;;;40.92;16.95;;;7.30;99.90;;;;;;4933068;29;20032;-92
2024/02/12 07:17:35;;;;;;;42.28;16.13;;;6.70;99.90;;;;;;4938791;29;20122;-92
2024/02/12 07:20:12;;;;;;;45.92;16.42;;;7.10;99.90;;;;;;4931490;29;20067;-93
2024/02/12 07:22:39;;;;;;;48.70;18.95;;;6.70;99.90;;;;;;4937745;29;20132;-93
2024/02/12 07:25:05;;;;;;;53.47;18.85;;;7.00;99.90;;;;;;4938617;29;20558;-92
2024/02/12 07:27:32;;;;;;;46.10;18.10;;;6.80;99.90;;;;;;4939264;29;20071;-93
2024/02/12 07:29:59;;;;;;;47.60;18.25;;;6.80;99.90;;;;;;4953898;29;20475;-94
2024/02/12 07:32:25;;;;;;;52.75;18.25;;;6.90;99.90;;;;;;4937985;29;20032;-92
2024/02/12 07:34:52;;;;;;;49.30;19.17;;;6.80;99.90;;;;;;4938214;29;20103;-93
2024/02/12 07:37:19;;;;;;;43.03;17.33;;;7.00;99.90;;;;;;4937368;29;20067;-93
2024/02/12 07:39:46;;;;;;;44.90;17.02;;;6.90;99.90;;;;;;4936789;29;20028;-92
2024/02/12 07:42:12;;;;;;;46.38;16.33;;;6.80;99.90;;;;;;4938617;29;20036;-91
2024/02/12 07:44:39;;;;;;;42.40;16.52;;;7.10;99.90;;;;;;4937497;29;20067;-92
2024/02/12 07:47:06;;;;;;;39.47;15.40;;;6.80;99.90;;;;;;4937031;29;20043;-92
2024/02/12 07:49:32;;;;;;;43.30;16.48;;;6.80;99.90;;;;;;4947967;29;21338;-90
2024/02/12 07:52:00;;;;;;;48.53;16.38;;;7.00;99.90;;;;;;4931985;29;20039;-92
2024/02/12 07:54:28;;;;;;;35.58;15.18;;;7.10;99.90;;;;;;4925863;29;20062;-92
2024/02/12 07:56:55;;;;;;;35.70;15.43;;;6.90;99.90;;;;;;4952409;29;20043;-90
2024/02/12 07:59:23;;;;;;;43.88;17.98;;;7.70;99.90;;;;;;4935911;29;20047;-93
2024/02/12 08:01:51;;;;;;;40.58;17.10;;;6.90;99.90;;;;;;4936787;29;20047;-93
2024/02/12 08:04:19;;;;;;;57.85;17.95;;;7.30;99.90;;;;;;4935476;29;20072;-92
2024/02/12 08:06:46;;;;;;;47.80;17.83;;;7.00;99.90;;;;;;4937555;29;20187;-87
2024/02/12 08:09:14;;;;;;;49.75;17.15;;;7.00;99.90;;;;;;4937634;29;20040;-89
2024/02/12 08:11:46;;;;;;;48.22;17.17;;;7.80;99.90;;;;;;4953523;29;20050;-87
2024/02/12 08:14:12;;;;;;;53.72;18.45;;;7.00;99.90;;;;;;4937939;29;20052;-89
2024/02/12 08:16:43;;;;;;;48.13;18.70;;;7.00;99.90;;;;;;4940436;29;20046;-88
2024/02/12 08:19:10;;;;;;;50.38;18.00;;;7.10;99.90;;;;;;4935249;29;20092;-88
2024/02/12 08:21:37;;;;;;;46.00;17.75;;;7.10;99.90;;;;;;4937549;29;20039;-88
2024/02/12 08:24:04;;;;;;;53.00;18.15;;;7.80;99.90;;;;;;4937283;29;20519;-88
2024/02/12 08:26:31;;;;;;;44.45;15.63;;;7.10;99.90;;;;;;4950082;29;20043;-87
2024/02/12 08:28:58;;;;;;;42.75;16.52;;;7.90;99.90;;;;;;4936919;29;20596;-88
2024/02/12 08:31:25;;;;;;;38.63;15.98;;;7.30;99.90;;;;;;4934766;29;20047;-88
2024/02/12 08:33:53;;;;;;;43.63;16.42;;;7.20;99.90;;;;;;4937071;29;20123;-88
2024/02/12 08:36:20;;;;;;;41.90;15.27;;;7.20;99.90;;;;;;4937427;29;20038;-88
2024/02/12 08:38:47;;;;;;;36.67;15.02;;;7.30;99.90;;;;;;4932188;29;20119;-89
2024/02/12 08:41:23;;;;;;;40.30;13.95;;;7.70;99.90;;;;;;4922428;29;20067;-88
2024/02/12 08:43:53;;;;;;;40.63;14.50;;;7.10;99.90;;;;;;4935326;29;20048;-88
2024/02/12 08:46:19;;;;;;;41.42;14.52;;;7.20;99.90;;;;;;4937173;29;20039;-89
2024/02/12 08:48:46;;;;;;;39.20;13.98;;;7.10;99.90;;;;;;4934615;29;20055;-88
2024/02/12 08:51:15;;;;;;;43.50;15.60;;;7.10;99.90;;;;;;4952434;29;20048;-88
2024/02/12 08:53:44;;;;;;;36.03;13.77;;;7.20;99.90;;;;;;4936830;29;20075;-89
2024/02/12 08:56:17;;;;;;;39.53;15.32;;;7.20;99.90;;;;;;4935391;29;20043;-88
2024/02/12 08:58:44;;;;;;;37.17;14.52;;;7.30;99.90;;;;;;4925573;29;20085;-89
2024/02/12 09:01:11;;;;;;;39.13;15.80;;;7.40;99.90;;;;;;4937195;29;20119;-89
2024/02/12 09:03:40;;;;;;;37.72;15.82;;;7.50;99.90;;;;;;4937017;29;20099;-88
2024/02/12 09:06:12;;;;;;;39.78;15.65;;;8.30;99.90;;;;;;4950658;29;20047;-89
2024/02/12 09:08:40;;;;;;;39.38;15.43;;;7.60;99.90;;;;;;4936991;29;20039;-89
2024/02/12 09:11:07;;;;;;;37.20;15.05;;;7.70;99.90;;;;;;4937200;29;20047;-90
2024/02/12 09:13:35;;;;;;;32.85;14.50;;;7.80;99.90;;;;;;4935298;29;20036;-90
2024/02/12 09:16:02;;;;;;;30.13;14.52;;;8.40;99.90;;;;;;4936711;29;20122;-89
2024/02/12 09:18:29;;;;;;;34.70;13.70;;;7.80;99.90;;;;;;4936948;29;20036;-89
2024/02/12 09:20:56;;;;;;;30.20;13.55;;;7.80;99.90;;;;;;4925250;29;20046;-89
2024/02/12 09:23:23;;;;;;;35.53;14.18;;;7.70;99.90;;;;;;4935629;29;20071;-89
2024/02/12 09:25:50;;;;;;;30.35;14.20;;;8.50;99.90;;;;;;4930399;29;20088;-89
2024/02/12 09:28:20;;;;;;;29.13;13.02;;;7.70;99.90;;;;;;4938180;29;20044;-89
2024/02/12 09:30:52;;;;;;;31.83;12.43;;;7.60;99.90;;;;;;4940256;29;20056;-89
2024/02/12 09:33:18;;;;;;;28.95;13.05;;;7.60;99.90;;;;;;4942703;29;20052;-91
2024/02/12 09:35:46;;;;;;;32.42;13.60;;;7.60;99.90;;;;;;4934940;29;20043;-91
2024/02/12 09:38:16;;;;;;;28.50;13.10;;;7.60;99.90;;;;;;4941168;29;20450;-89
2024/02/12 09:40:44;;;;;;;30.63;13.07;;;7.60;99.90;;;;;;4946943;29;20408;-88
2024/02/12 09:43:12;;;;;;;31.35;12.75;;;7.60;99.90;;;;;;4940418;29;20040;-89
2024/02/12 09:45:44;;;;;;;29.98;12.88;;;8.60;99.90;;;;;;4940369;29;20048;-89
2024/02/12 09:48:14;;;;;;;31.13;13.13;;;7.70;99.90;;;;;;4940060;29;20047;-88
2024/02/12 09:50:44;;;;;;;34.25;14.55;;;8.20;99.90;;;;;;4933404;29;20047;-89
2024/02/12 09:53:19;;;;;;;30.48;13.02;;;7.80;99.90;;;;;;4926689;29;20108;-89
2024/02/12 09:55:49;;;;;;;27.55;12.43;;;7.90;99.90;;;;;;4953033;29;20780;-89
2024/02/12 09:58:16;;;;;;;31.55;12.88;;;8.10;99.90;;;;;;4933876;29;20532;-89
2024/02/12 10:00:44;;;;;;;28.35;13.07;;;8.60;99.90;;;;;;4940086;29;20046;-89
2024/02/12 10:03:11;;;;;;;28.75;13.15;;;8.00;99.90;;;;;;4939595;29;20040;-91
2024/02/12 10:05:43;;;;;;;31.17;13.35;;;8.10;99.90;;;;;;4938894;29;20047;-91
2024/02/12 10:08:20;;;;;;;29.98;12.55;;;8.30;99.90;;;;;;4939791;29;20051;-90
2024/02/12 10:10:48;;;;;;;27.17;11.15;;;8.20;99.90;;;;;;4930251;29;20119;-89
2024/02/12 10:13:16;;;;;;;29.80;12.25;;;8.40;99.90;;;;;;4952515;29;20175;-89
2024/02/12 10:15:43;;;;;;;25.85;12.52;;;8.30;99.90;;;;;;4937057;29;21069;-88
2024/02/12 10:18:12;;;;;;;27.98;11.73;;;8.40;99.90;;;;;;4932706;29;20036;-88
2024/02/12 10:20:39;;;;;;;26.67;11.13;;;8.40;99.90;;;;;;4939656;29;20043;-89
2024/02/12 10:23:13;;;;;;;23.00;10.57;;;8.50;99.90;;;;;;4939740;29;20556;-89
2024/02/12 10:25:41;;;;;;;27.75;11.18;;;8.60;99.90;;;;;;4927605;29;20157;-89
2024/02/12 10:28:08;;;;;;;26.88;10.98;;;9.00;99.90;;;;;;4939064;29;21026;-90
2024/02/12 10:30:35;;;;;;;21.67;9.35;;;8.80;99.90;;;;;;4936473;29;20110;-90
2024/02/12 10:33:05;;;;;;;25.50;10.32;;;9.00;99.90;;;;;;4955581;29;20500;-89
2024/02/12 10:35:39;;;;;;;23.17;10.32;;;8.70;99.90;;;;;;4939375;29;20032;-89
2024/02/12 10:38:06;;;;;;;19.05;8.88;;;8.70;99.90;;;;;;4939544;29;20046;-89
2024/02/12 10:40:42;;;;;;;22.55;9.10;;;8.70;99.90;;;;;;4939958;29;20059;-89
2024/02/12 10:43:14;;;;;;;24.58;9.43;;;8.80;99.90;;;;;;4939800;29;20095;-89
2024/02/12 10:45:47;;;;;;;20.92;9.50;;;8.80;99.90;;;;;;4935310;29;20039;-88
2024/02/12 10:48:16;;;;;;;21.42;9.02;;;9.00;99.90;;;;;;4934296;29;20047;-88
2024/02/12 10:50:47;;;;;;;22.33;9.63;;;8.80;99.90;;;;;;4943442;29;20085;-89
2024/02/12 10:53:18;;;;;;;18.02;8.63;;;8.90;99.90;;;;;;4935781;29;20047;-89
2024/02/12 10:55:45;;;;;;;19.05;8.10;;;8.90;99.90;;;;;;4950668;29;20122;-88
2024/02/12 10:58:13;;;;;;;19.58;8.38;;;8.80;99.90;;;;;;4936106;29;20039;-88
2024/02/12 11:00:40;;;;;;;19.00;7.25;;;9.00;99.90;;;;;;4934789;29;20046;-90
2024/02/12 11:03:07;;;;;;;18.40;7.13;;;9.50;99.90;;;;;;4938526;29;20043;-90
2024/02/12 11:05:43;;;;;;;16.15;7.38;;;8.90;99.90;;;;;;4938589;29;20512;-90
2024/02/12 11:08:14;;;;;;;;;;;9.30;99.90;;;;;;4940432;29;20188;-90
2024/02/12 11:10:43;;;;;;;15.02;7.25;;;8.80;99.90;;;;;;4938533;29;19919;-90
2024/02/12 11:13:15;;;;;;;14.02;7.53;;;8.90;99.90;;;;;;4939000;29;20051;-89
2024/02/12 11:15:52;;;;;;;16.92;7.13;;;9.80;99.90;;;;;;4938511;29;20043;-90
2024/02/12 11:18:25;;;;;;;21.65;7.35;;;8.90;99.90;;;;;;4935982;29;20044;-91
2024/02/12 11:20:56;;;;;;;16.75;7.82;;;9.50;99.90;;;;;;4936070;29;20050;-91
2024/02/12 11:23:24;;;;;;;13.75;6.50;;;8.90;99.90;;;;;;4938168;29;20043;-91
2024/02/12 11:26:01;;;;;;;16.73;6.85;;;9.30;99.90;;;;;;4937740;29;20047;-90
2024/02/12 11:28:29;;;;;;;18.92;7.05;;;9.20;99.90;;;;;;4936393;29;20040;-91
2024/02/12 11:30:56;;;;;;;14.75;6.32;;;9.60;99.90;;;;;;4935641;29;20134;-89
2024/02/12 11:33:27;;;;;;;14.93;6.38;;;8.90;99.90;;;;;;4936826;29;20036;-92
2024/02/12 11:36:07;;;;;;;20.50;6.90;;;8.90;99.90;;;;;;4952452;29;20036;-91
2024/02/12 11:38:52;;;;;;;14.88;6.43;;;8.90;99.90;;;;;;4938698;29;20099;-91
2024/02/12 11:41:19;;;;;;;14.30;6.70;;;8.90;99.90;;;;;;4954242;29;20099;-91
2024/02/12 11:43:47;;;;;;;17.08;7.03;;;8.90;99.90;;;;;;4938078;29;20044;-91
2024/02/12 11:46:18;;;;;;;19.33;6.50;;;8.90;99.90;;;;;;4938142;29;20107;-90
2024/02/12 11:48:45;;;;;;;15.02;6.38;;;9.80;99.90;;;;;;4938015;29;20067;-91
2024/02/12 11:51:19;;;;;;;12.85;6.63;;;9.00;99.90;;;;;;4937832;29;20032;-91
2024/02/12 11:53:46;;;;;;;12.52;5.65;;;9.10;99.90;;;;;;4939979;29;20062;-91
2024/02/12 11:56:19;;;;;;;13.05;5.82;;;9.70;99.90;;;;;;4938500;29;20032;-91
2024/02/12 11:58:45;;;;;;;11.50;5.20;;;9.00;99.90;;;;;;4936561;29;20032;-90
2024/02/12 12:01:14;;;;;;;10.52;4.82;;;9.50;99.90;;;;;;4937948;29;20032;-89
2024/02/12 12:03:41;;;;;;;11.00;5.10;;;9.10;99.90;;;;;;4937379;29;20075;-90
2024/02/12 12:06:12;;;;;;;9.50;4.57;;;9.40;99.90;;;;;;4937942;29;20086;-90
2024/02/12 12:08:40;;;;;;;13.65;4.32;;;9.00;99.90;;;;;;4937101;29;20051;-88
2024/02/12 12:11:06;;;;;;;12.57;5.13;;;9.10;99.90;;;;;;4937883;29;20043;-90
2024/02/12 12:13:33;;;;;;;9.88;4.50;;;9.10;99.90;;;;;;4937598;29;20847;-89
2024/02/12 12:16:00;;;;;;;18.77;4.75;;;9.10;99.90;;;;;;4953550;29;20044;-89
2024/02/12 12:18:27;;;;;;;8.15;4.18;;;9.10;99.90;;;;;;4937510;29;20500;-90
2024/02/12 12:20:54;;;;;;;9.02;4.32;;;9.10;99.90;;;;;;4935796;29;20046;-89
2024/02/12 12:23:21;;;;;;;12.95;4.70;;;9.30;99.90;;;;;;4937011;29;20065;-90
2024/02/12 12:25:52;;;;;;;13.20;4.78;;;9.90;99.90;;;;;;4937788;29;20044;-90
2024/02/12 12:28:19;;;;;;;17.27;4.85;;;9.30;99.90;;;;;;4931340;29;20044;-89
2024/02/12 12:30:46;;;;;;;16.58;6.07;;;9.20;99.90;;;;;;4935685;29;20107;-90
2024/02/12 12:33:13;;;;;;;12.05;4.90;;;9.30;99.90;;;;;;4937624;29;20043;-90
2024/02/12 12:35:40;;;;;;;13.38;4.85;;;9.30;99.90;;;;;;4929802;29;20123;-89
2024/02/12 12:38:10;;;;;;;12.32;4.85;;;9.30;99.90;;;;;;4936190;29;20091;-89
2024/02/12 12:40:37;;;;;;;12.98;5.60;;;9.20;99.90;;;;;;4931813;29;20036;-90
2024/02/12 12:43:07;;;;;;;9.85;5.18;;;9.60;99.90;;;;;;4940267;29;20039;-90
2024/02/12 12:45:35;;;;;;;13.00;4.97;;;10.00;99.90;;;;;;4952985;29;20420;-90
2024/02/12 12:48:04;;;;;;;8.65;4.90;;;9.50;99.90;;;;;;4932650;29;20503;-90
2024/02/12 12:50:31;;;;;;;10.98;4.45;;;9.40;99.90;;;;;;4930653;29;20051;-90
2024/02/12 12:52:58;;;;;;;10.82;4.63;;;10.20;99.90;;;;;;4932960;29;20043;-89
2024/02/12 12:55:25;;;;;;;9.35;4.13;;;9.50;99.90;;;;;;4933888;29;20044;-89
2024/02/12 12:57:53;;;;;;;7.60;3.90;;;9.20;99.90;;;;;;4953007;29;20039;-90
2024/02/12 13:00:21;;;;;;;12.98;4.20;;;9.20;99.90;;;;;;4936009;29;20048;-88